Time;durP1;ratioP1;P1;durP2;ratioP2;P2;SDS_P1;SDS_P2;PMS_P1;PMS_P2;Temp;Humidity;BMP_temperature;BMP_pressure;BME280_temperature;BME280_humidity;BME280_pressure;Samples;Min_cycle;Max_cycle;Signal;HPM_P1;HPM_P2
2023/10/29 00:01:38;;;;;;;3.60;0.80;;;11.90;99.90;;;;;;5015151;28;20116;-75
2023/10/29 00:04:04;;;;;;;1.33;0.60;;;12.00;99.90;;;;;;5027913;28;20068;-75
2023/10/29 00:06:30;;;;;;;0.50;0.40;;;12.00;99.90;;;;;;5008672;28;20132;-75
2023/10/29 00:08:56;;;;;;;5.68;0.75;;;12.00;99.90;;;;;;5024816;28;20085;-75
2023/10/29 00:11:22;;;;;;;5.97;0.63;;;12.00;99.90;;;;;;5014602;28;20502;-75
2023/10/29 00:13:47;;;;;;;1.35;0.80;;;12.00;99.90;;;;;;5022013;28;20064;-75
2023/10/29 00:16:14;;;;;;;1.15;0.60;;;12.00;99.90;;;;;;5026103;28;20619;-75
2023/10/29 00:18:40;;;;;;;1.85;0.82;;;12.00;99.90;;;;;;5010725;28;20055;-75
2023/10/29 00:21:06;;;;;;;4.90;0.50;;;12.00;99.90;;;;;;5028771;28;20037;-73
2023/10/29 00:23:33;;;;;;;1.75;0.77;;;12.00;99.90;;;;;;5014274;28;20425;-72
2023/10/29 00:25:59;;;;;;;0.75;0.30;;;12.00;99.90;;;;;;5023512;28;20371;-73
2023/10/29 00:28:25;;;;;;;1.38;0.38;;;12.00;99.90;;;;;;5013204;28;20037;-73
2023/10/29 00:30:55;;;;;;;0.57;0.47;;;12.00;99.90;;;;;;5026220;28;20041;-73
2023/10/29 00:33:21;;;;;;;4.60;0.40;;;11.90;99.90;;;;;;5010083;28;20033;-73
2023/10/29 00:35:47;;;;;;;3.30;0.30;;;11.80;99.90;;;;;;5027465;28;20064;-73
2023/10/29 00:38:13;;;;;;;1.17;0.30;;;11.80;99.90;;;;;;5010528;28;20140;-74
2023/10/29 00:40:39;;;;;;;0.98;0.98;;;11.70;99.90;;;;;;5021082;28;20056;-74
2023/10/29 00:43:05;;;;;;;0.10;0.10;;;11.70;99.90;;;;;;5012096;28;20060;-75
2023/10/29 00:45:31;;;;;;;0.45;0.43;;;11.70;99.90;;;;;;5020926;28;20120;-74
2023/10/29 00:47:57;;;;;;;3.30;0.47;;;11.80;99.90;;;;;;5010226;28;21732;-75
2023/10/29 00:50:22;;;;;;;0.55;0.50;;;11.80;99.90;;;;;;5030047;28;20041;-72
2023/10/29 00:52:48;;;;;;;0.35;0.28;;;11.40;99.90;;;;;;5010627;28;20095;-71
2023/10/29 00:55:14;;;;;;;0.30;0.13;;;11.40;99.90;;;;;;5027201;28;20037;-73
2023/10/29 00:57:41;;;;;;;0.05;0.05;;;11.20;99.90;;;;;;5028971;28;20464;-73
2023/10/29 01:00:07;;;;;;;0.00;0.00;;;11.10;99.90;;;;;;5009665;28;20099;-72
2023/10/29 01:02:34;;;;;;;0.30;0.10;;;11.00;99.90;;;;;;5025108;28;20033;-72
2023/10/29 01:05:01;;;;;;;0.00;0.00;;;10.90;99.90;;;;;;5025784;28;20040;-72
2023/10/29 01:07:27;;;;;;;0.00;0.00;;;10.80;99.90;;;;;;5024067;28;20044;-72
2023/10/29 01:09:52;;;;;;;0.55;0.03;;;10.80;99.90;;;;;;5024429;28;20025;-73
2023/10/29 01:12:19;;;;;;;0.00;0.00;;;10.70;99.90;;;;;;5023597;28;20413;-74
2023/10/29 01:14:45;;;;;;;0.00;0.00;;;10.70;99.90;;;;;;5021681;28;20029;-74
2023/10/29 01:17:11;;;;;;;0.68;0.30;;;10.70;99.90;;;;;;5024357;28;20052;-74
2023/10/29 01:19:37;;;;;;;1.77;0.20;;;10.70;99.90;;;;;;5019729;28;20028;-74
2023/10/29 01:22:03;;;;;;;1.80;0.38;;;10.70;99.90;;;;;;5027142;28;20033;-73
2023/10/29 01:24:28;;;;;;;0.30;0.22;;;10.80;99.90;;;;;;5030941;28;20052;-73
2023/10/29 01:26:54;;;;;;;0.50;0.17;;;10.80;99.90;;;;;;5027831;28;20084;-73
2023/10/29 01:29:20;;;;;;;0.45;0.20;;;10.90;99.90;;;;;;5029689;28;20035;-73
2023/10/29 01:31:49;;;;;;;0.95;0.17;;;10.90;99.90;;;;;;5029932;28;20032;-73
2023/10/29 01:34:17;;;;;;;0.10;0.10;;;11.00;99.90;;;;;;5024943;28;20040;-73
2023/10/29 01:36:42;;;;;;;1.60;0.30;;;11.10;99.90;;;;;;5026870;28;20359;-73
2023/10/29 01:39:08;;;;;;;0.90;0.28;;;11.50;99.90;;;;;;5025592;28;20382;-73
2023/10/29 01:41:34;;;;;;;2.05;0.75;;;11.60;99.90;;;;;;5026488;28;20416;-73
2023/10/29 01:44:00;;;;;;;1.25;0.57;;;11.60;99.90;;;;;;5029387;28;20685;-73
2023/10/29 01:46:26;;;;;;;0.98;0.43;;;11.60;99.90;;;;;;5022891;28;20033;-73
2023/10/29 01:48:52;;;;;;;12.00;0.55;;;11.60;99.90;;;;;;5025318;28;20057;-73
2023/10/29 01:51:17;;;;;;;3.95;0.43;;;11.60;99.90;;;;;;5028089;28;20556;-73
2023/10/29 01:53:43;;;;;;;0.30;0.10;;;11.40;99.90;;;;;;5023452;28;20029;-74
2023/10/29 01:56:09;;;;;;;4.45;1.42;;;11.40;99.90;;;;;;5031708;28;20047;-73
2023/10/29 01:58:35;;;;;;;3.67;0.90;;;11.40;99.90;;;;;;5028169;28;20132;-73
2023/10/29 02:01:01;;;;;;;2.30;0.68;;;11.40;99.90;;;;;;5023663;28;20037;-74
2023/10/29 02:03:27;;;;;;;5.07;0.57;;;11.40;99.90;;;;;;5013601;28;20095;-73
2023/10/29 02:05:54;;;;;;;1.90;0.70;;;11.40;99.90;;;;;;5027192;28;20107;-73
2023/10/29 02:08:20;;;;;;;5.70;0.52;;;11.40;99.90;;;;;;5011355;28;20049;-72
2023/10/29 02:10:45;;;;;;;1.17;0.38;;;11.40;99.90;;;;;;5027426;28;20033;-72
2023/10/29 02:13:12;;;;;;;0.63;0.38;;;11.40;99.90;;;;;;5020064;28;20029;-73
2023/10/29 02:15:38;;;;;;;1.27;0.30;;;11.40;99.90;;;;;;5013637;28;20059;-74
2023/10/29 02:18:04;;;;;;;0.05;0.03;;;11.50;99.90;;;;;;5023095;28;20164;-74
2023/10/29 02:20:29;;;;;;;1.17;0.55;;;11.40;99.90;;;;;;5008454;28;20039;-75
2023/10/29 02:22:55;;;;;;;7.45;0.50;;;11.40;99.90;;;;;;5032407;28;20037;-74
2023/10/29 02:25:20;;;;;;;1.08;0.10;;;11.50;99.90;;;;;;5017601;28;20473;-75
2023/10/29 02:27:46;;;;;;;0.15;0.13;;;11.40;99.90;;;;;;5025332;28;20044;-75
2023/10/29 02:30:12;;;;;;;0.77;0.50;;;11.40;99.90;;;;;;5017173;28;20025;-76
2023/10/29 02:32:38;;;;;;;1.65;0.82;;;11.40;99.90;;;;;;5027626;28;20202;-75
2023/10/29 02:35:06;;;;;;;5.78;0.40;;;11.30;99.90;;;;;;5010999;28;21686;-75
2023/10/29 02:37:32;;;;;;;1.98;0.45;;;11.30;99.90;;;;;;5035249;28;20041;-76
2023/10/29 02:39:58;;;;;;;1.25;0.60;;;11.20;99.90;;;;;;5022237;28;20025;-75
2023/10/29 02:42:24;;;;;;;1.58;1.20;;;11.20;99.90;;;;;;5028553;28;21168;-75
2023/10/29 02:44:49;;;;;;;1.35;0.20;;;11.20;99.90;;;;;;5016622;28;20045;-74
2023/10/29 02:47:15;;;;;;;0.47;0.20;;;11.20;99.90;;;;;;5021388;28;20066;-75
2023/10/29 02:49:41;;;;;;;2.83;0.47;;;11.30;99.90;;;;;;5017661;28;20079;-75
2023/10/29 02:52:06;;;;;;;0.17;0.15;;;11.30;99.90;;;;;;5024072;28;20033;-74
2023/10/29 02:54:33;;;;;;;0.22;0.17;;;11.40;99.90;;;;;;5026764;28;20128;-74
2023/10/29 02:56:58;;;;;;;1.63;0.65;;;11.50;99.90;;;;;;5014946;28;20041;-73
2023/10/29 02:59:24;;;;;;;1.23;0.22;;;11.40;99.90;;;;;;5028739;28;20107;-73
2023/10/29 03:01:50;;;;;;;0.25;0.10;;;11.30;99.90;;;;;;5006092;28;20479;-72
2023/10/29 03:11:14;;;;;;;9.52;0.47;;;11.10;99.90;;;;;;5008586;28;20307;-75
2023/10/29 03:13:40;;;;;;;4.32;0.38;;;11.00;99.90;;;;;;4988610;28;20048;-74
2023/10/29 03:16:05;;;;;;;0.57;0.17;;;10.90;99.90;;;;;;5001861;28;20501;-75
2023/10/29 03:18:31;;;;;;;2.90;0.20;;;10.90;99.90;;;;;;4998742;28;20037;-75
2023/10/29 03:20:57;;;;;;;1.10;0.45;;;10.80;99.90;;;;;;5015477;28;20025;-75
2023/10/29 03:23:24;;;;;;;0.03;0.00;;;10.80;99.90;;;;;;4995790;28;20030;-75
2023/10/29 03:25:49;;;;;;;0.93;0.52;;;10.80;99.90;;;;;;5017902;28;20081;-75
2023/10/29 03:28:15;;;;;;;0.22;0.20;;;10.80;99.90;;;;;;5013474;28;20545;-76
2023/10/29 03:30:41;;;;;;;0.28;0.20;;;10.80;99.90;;;;;;5000110;28;20469;-76
2023/10/29 03:33:06;;;;;;;4.93;0.30;;;10.80;99.90;;;;;;5016216;28;20036;-76
2023/10/29 03:35:32;;;;;;;1.88;0.20;;;10.70;99.90;;;;;;5003161;28;20025;-76
2023/10/29 03:37:58;;;;;;;1.45;0.35;;;10.70;99.90;;;;;;5020610;28;20400;-76
2023/10/29 03:40:23;;;;;;;1.60;0.20;;;10.70;99.90;;;;;;5003794;28;20030;-76
2023/10/29 03:42:49;;;;;;;0.70;0.30;;;10.70;99.90;;;;;;5012199;28;20422;-76
2023/10/29 03:45:14;;;;;;;0.85;0.20;;;10.80;99.90;;;;;;5004391;28;20387;-76
2023/10/29 03:47:42;;;;;;;2.65;0.73;;;10.70;99.90;;;;;;5012767;28;20804;-76
2023/10/29 03:50:08;;;;;;;1.42;0.28;;;10.70;99.90;;;;;;4990927;28;20030;-75
2023/10/29 03:52:34;;;;;;;4.85;0.28;;;10.70;99.90;;;;;;5020055;28;20029;-75
2023/10/29 03:55:00;;;;;;;0.20;0.10;;;10.60;99.90;;;;;;5002928;28;20076;-75
2023/10/29 03:57:25;;;;;;;1.08;0.32;;;10.50;99.90;;;;;;5020861;28;20132;-75
2023/10/29 03:59:51;;;;;;;4.40;0.43;;;10.50;99.90;;;;;;5008811;28;20037;-75
2023/10/29 04:02:17;;;;;;;0.25;0.20;;;10.50;99.90;;;;;;5014233;28;20037;-75
2023/10/29 04:04:42;;;;;;;0.17;0.17;;;10.60;99.90;;;;;;5006982;28;20041;-74
2023/10/29 04:07:08;;;;;;;0.60;0.50;;;10.60;99.90;;;;;;5018159;28;20040;-75
2023/10/29 04:09:34;;;;;;;1.17;0.45;;;10.60;99.90;;;;;;5025775;28;20049;-75
2023/10/29 04:12:00;;;;;;;0.55;0.22;;;10.70;99.90;;;;;;5026523;28;20029;-75
2023/10/29 04:14:26;;;;;;;2.53;0.60;;;10.70;99.90;;;;;;5039198;28;20508;-75
2023/10/29 04:16:51;;;;;;;1.45;0.30;;;10.70;99.90;;;;;;5024634;28;20037;-75
2023/10/29 04:19:17;;;;;;;1.60;0.40;;;10.70;99.90;;;;;;5038890;28;20048;-75
2023/10/29 04:21:43;;;;;;;3.83;0.25;;;10.60;99.90;;;;;;5021106;28;20037;-75
2023/10/29 04:24:08;;;;;;;1.67;0.43;;;10.60;99.90;;;;;;5030788;28;20068;-75
2023/10/29 04:26:34;;;;;;;9.95;0.55;;;10.70;99.90;;;;;;5032259;28;20476;-75
2023/10/29 04:29:00;;;;;;;4.03;0.47;;;10.70;99.90;;;;;;5047111;28;20485;-75
2023/10/29 04:31:25;;;;;;;3.75;0.17;;;10.90;99.90;;;;;;5030209;28;20033;-75
2023/10/29 04:33:51;;;;;;;1.45;0.45;;;11.30;99.90;;;;;;5037741;28;20631;-75
2023/10/29 04:36:19;;;;;;;7.13;0.20;;;11.60;99.90;;;;;;5020569;28;20532;-75
2023/10/29 04:38:45;;;;;;;3.05;0.30;;;11.80;99.90;;;;;;5041047;28;20040;-75
2023/10/29 04:41:11;;;;;;;4.40;0.28;;;11.80;99.90;;;;;;5026350;28;20029;-75
2023/10/29 04:43:36;;;;;;;3.17;0.75;;;11.70;99.90;;;;;;5036504;28;20068;-74
2023/10/29 04:46:03;;;;;;;2.20;0.47;;;11.60;99.90;;;;;;5029841;28;20067;-75
2023/10/29 04:48:29;;;;;;;0.30;0.30;;;11.50;99.90;;;;;;5035857;28;20127;-75
2023/10/29 04:50:54;;;;;;;2.95;0.20;;;11.50;99.90;;;;;;5036170;28;20035;-76
2023/10/29 04:53:20;;;;;;;2.83;0.82;;;11.60;99.90;;;;;;5024239;28;20099;-76
2023/10/29 04:55:46;;;;;;;0.05;0.05;;;11.80;99.90;;;;;;5034656;28;20068;-76
2023/10/29 04:58:11;;;;;;;2.45;0.45;;;11.80;99.90;;;;;;5023556;28;20029;-76
2023/10/29 05:00:37;;;;;;;3.70;0.28;;;11.80;99.90;;;;;;5041579;28;20053;-75
2023/10/29 05:03:02;;;;;;;1.48;0.50;;;11.80;99.20;;;;;;5025924;28;20119;-75
2023/10/29 05:05:30;;;;;;;2.78;0.60;;;11.80;99.00;;;;;;5038309;28;20075;-76
2023/10/29 05:07:56;;;;;;;0.30;0.10;;;11.90;99.10;;;;;;5026545;28;20733;-76
2023/10/29 05:10:25;;;;;;;0.20;0.03;;;11.90;99.20;;;;;;5031821;28;20107;-76
2023/10/29 05:12:50;;;;;;;11.35;1.05;;;12.00;98.90;;;;;;5030746;28;20047;-76
2023/10/29 05:15:17;;;;;;;0.43;0.13;;;12.10;98.70;;;;;;5039644;28;20065;-76
2023/10/29 05:17:42;;;;;;;2.03;0.45;;;12.20;98.60;;;;;;5030613;28;20029;-76
2023/10/29 05:20:10;;;;;;;4.63;0.80;;;12.30;98.70;;;;;;5041801;28;20477;-76
2023/10/29 05:22:36;;;;;;;8.68;0.75;;;12.30;98.60;;;;;;5022073;28;20040;-76
2023/10/29 05:25:02;;;;;;;5.68;0.43;;;12.50;98.70;;;;;;5035995;28;20056;-76
2023/10/29 05:27:28;;;;;;;7.25;1.23;;;12.60;98.80;;;;;;5025538;28;20075;-77
2023/10/29 05:29:53;;;;;;;3.38;0.22;;;12.70;98.20;;;;;;5032158;28;20029;-78
2023/10/29 05:32:19;;;;;;;8.77;1.20;;;12.70;97.90;;;;;;5037194;28;20016;-77
2023/10/29 05:34:45;;;;;;;0.40;0.35;;;12.80;97.10;;;;;;5028680;28;20120;-78
2023/10/29 05:37:11;;;;;;;1.30;0.45;;;12.90;96.40;;;;;;5036283;28;20039;-78
2023/10/29 05:39:36;;;;;;;0.65;0.57;;;12.90;97.10;;;;;;5028438;28;20164;-78
2023/10/29 05:42:02;;;;;;;3.08;1.08;;;12.90;97.60;;;;;;5035244;28;20507;-78
2023/10/29 05:44:28;;;;;;;0.20;0.20;;;12.80;98.50;;;;;;5027331;28;20076;-78
2023/10/29 05:46:54;;;;;;;4.95;0.65;;;12.60;98.70;;;;;;5044123;28;20120;-78
2023/10/29 05:49:19;;;;;;;14.13;0.50;;;12.40;99.30;;;;;;5025899;28;20029;-77
2023/10/29 05:51:45;;;;;;;2.10;0.57;;;12.40;99.10;;;;;;5039885;28;20545;-77
2023/10/29 05:54:10;;;;;;;1.55;0.35;;;12.30;99.90;;;;;;5025103;28;20066;-77
2023/10/29 05:56:36;;;;;;;0.60;0.20;;;12.20;99.40;;;;;;5033882;28;20421;-76
2023/10/29 05:59:02;;;;;;;5.30;0.75;;;12.10;97.90;;;;;;5022149;28;20116;-76
2023/10/29 06:01:28;;;;;;;4.43;0.15;;;11.80;98.40;;;;;;5037618;28;20068;-76
2023/10/29 06:03:55;;;;;;;0.35;0.28;;;11.60;98.80;;;;;;5021294;28;20037;-77
2023/10/29 06:06:21;;;;;;;3.42;0.22;;;11.50;99.40;;;;;;5037052;28;20044;-77
2023/10/29 06:08:46;;;;;;;6.82;0.50;;;11.40;99.80;;;;;;5027242;28;20053;-77
2023/10/29 06:11:13;;;;;;;3.92;0.65;;;11.50;99.10;;;;;;5037764;28;20072;-77
2023/10/29 06:13:38;;;;;;;3.58;1.58;;;11.70;98.80;;;;;;5036533;28;20036;-77
2023/10/29 06:16:08;;;;;;;4.68;0.30;;;11.70;99.10;;;;;;5025563;28;20067;-77
2023/10/29 06:18:34;;;;;;;8.38;0.90;;;11.70;99.50;;;;;;5043401;28;20540;-77
2023/10/29 06:20:59;;;;;;;0.20;0.20;;;11.70;99.40;;;;;;5029948;28;20029;-77
2023/10/29 06:23:26;;;;;;;3.90;0.32;;;11.70;99.90;;;;;;5033989;28;20074;-76
2023/10/29 06:25:51;;;;;;;6.05;0.32;;;11.70;99.80;;;;;;5023824;28;20056;-77
2023/10/29 06:28:17;;;;;;;1.30;0.38;;;11.70;99.80;;;;;;5037590;28;20155;-77
2023/10/29 06:30:44;;;;;;;8.82;1.13;;;11.70;99.10;;;;;;5021897;28;20791;-76
2023/10/29 06:33:09;;;;;;;2.42;0.50;;;11.80;98.80;;;;;;5037139;28;20040;-77
2023/10/29 06:35:35;;;;;;;3.60;1.73;;;11.80;99.30;;;;;;5022217;28;20448;-77
2023/10/29 06:38:01;;;;;;;2.03;0.15;;;11.80;99.70;;;;;;5035123;28;20750;-77
2023/10/29 06:40:26;;;;;;;3.25;1.00;;;12.00;99.90;;;;;;5025015;28;20033;-78
2023/10/29 06:42:52;;;;;;;4.75;0.73;;;12.10;99.70;;;;;;5037481;28;20021;-77
2023/10/29 06:45:18;;;;;;;4.60;0.82;;;12.20;99.40;;;;;;5037801;28;20029;-77
2023/10/29 06:47:43;;;;;;;4.78;0.40;;;12.30;98.70;;;;;;5042473;28;20636;-77
2023/10/29 06:50:09;;;;;;;9.23;0.80;;;12.30;99.50;;;;;;5024013;28;20127;-74
2023/10/29 06:52:35;;;;;;;2.83;0.43;;;12.20;99.90;;;;;;5039617;28;20077;-74
2023/10/29 06:55:01;;;;;;;2.28;0.35;;;12.10;99.90;;;;;;5036585;28;20025;-75
2023/10/29 06:57:26;;;;;;;4.90;0.65;;;12.00;99.90;;;;;;5016484;28;20099;-74
2023/10/29 06:59:52;;;;;;;0.28;0.10;;;11.80;99.90;;;;;;5035427;28;20559;-74
2023/10/29 07:02:17;;;;;;;3.45;0.52;;;11.70;99.90;;;;;;5023010;28;20064;-74
2023/10/29 07:04:43;;;;;;;1.23;0.47;;;11.70;99.90;;;;;;5034915;28;20618;-76
2023/10/29 07:07:11;;;;;;;0.17;0.17;;;11.70;99.90;;;;;;5025024;28;20496;-75
2023/10/29 07:09:36;;;;;;;0.15;0.10;;;11.60;99.90;;;;;;5032043;28;20501;-74
2023/10/29 07:12:04;;;;;;;7.13;0.47;;;11.60;99.90;;;;;;5023613;28;20041;-75
2023/10/29 07:14:29;;;;;;;2.30;0.47;;;11.60;99.90;;;;;;5037304;28;20116;-76
2023/10/29 07:16:55;;;;;;;1.25;0.85;;;11.80;99.90;;;;;;5022234;28;20047;-75
2023/10/29 07:19:21;;;;;;;15.60;1.85;;;11.90;99.90;;;;;;5041469;28;20090;-75
2023/10/29 07:21:46;;;;;;;4.47;0.45;;;12.00;99.90;;;;;;5026367;28;20056;-76
2023/10/29 07:24:12;;;;;;;3.78;0.65;;;12.10;99.90;;;;;;5032786;28;20041;-76
2023/10/29 07:26:38;;;;;;;3.28;0.43;;;12.10;99.50;;;;;;5025473;28;21118;-75
2023/10/29 07:29:03;;;;;;;11.18;1.77;;;12.00;99.90;;;;;;5034017;28;20037;-75
2023/10/29 07:31:30;;;;;;;2.17;0.82;;;11.90;99.40;;;;;;5023067;28;20056;-75
2023/10/29 07:34:11;;;;;;;8.95;1.25;;;11.90;99.90;;;;;;5040555;28;20473;-73
2023/10/29 07:36:36;;;;;;;14.65;0.77;;;12.00;99.90;;;;;;5023946;28;20064;-74
2023/10/29 07:39:02;;;;;;;2.28;0.40;;;12.10;99.90;;;;;;5029953;28;20199;-74
2023/10/29 07:41:28;;;;;;;4.90;0.93;;;12.10;99.90;;;;;;5033317;28;20128;-74
2023/10/29 07:43:53;;;;;;;7.43;1.20;;;12.30;99.90;;;;;;5020160;28;20033;-75
2023/10/29 07:46:20;;;;;;;0.63;0.63;;;12.50;99.90;;;;;;5046627;28;20044;-74
2023/10/29 07:48:46;;;;;;;16.15;1.55;;;12.80;99.90;;;;;;5052830;28;20055;-75
2023/10/29 07:51:11;;;;;;;2.08;0.85;;;12.90;99.90;;;;;;5062687;28;20017;-75
2023/10/29 07:53:37;;;;;;;10.05;0.65;;;13.00;99.90;;;;;;5056133;28;20032;-74
2023/10/29 07:56:09;;;;;;;6.88;0.50;;;13.20;99.90;;;;;;5063228;28;20029;-75
2023/10/29 07:58:36;;;;;;;1.55;1.27;;;13.30;99.80;;;;;;5050375;28;20055;-75
2023/10/29 08:01:01;;;;;;;12.15;1.10;;;13.50;99.90;;;;;;5064625;28;20021;-75
2023/10/29 08:03:27;;;;;;;1.50;0.25;;;13.50;99.90;;;;;;5032228;28;20082;-75
2023/10/29 08:05:53;;;;;;;2.83;0.68;;;13.60;99.60;;;;;;5034792;28;20031;-77
2023/10/29 08:08:19;;;;;;;1.95;0.75;;;13.60;99.90;;;;;;5022374;28;20013;-76
2023/10/29 08:10:45;;;;;;;5.63;2.08;;;13.60;99.30;;;;;;5026911;28;20111;-76
2023/10/29 08:13:11;;;;;;;2.63;0.40;;;13.60;99.80;;;;;;5022837;28;20407;-76
2023/10/29 08:15:37;;;;;;;4.55;0.60;;;13.60;99.30;;;;;;5037223;28;20040;-77
2023/10/29 08:18:03;;;;;;;7.35;2.33;;;13.60;99.20;;;;;;5017584;28;20477;-77
2023/10/29 08:20:28;;;;;;;8.27;1.00;;;13.60;99.10;;;;;;5036076;28;20099;-76
2023/10/29 08:22:54;;;;;;;6.43;1.33;;;13.70;99.00;;;;;;5034055;28;20032;-76
2023/10/29 08:25:20;;;;;;;4.57;1.38;;;13.70;98.90;;;;;;5024023;28;20444;-77
2023/10/29 08:27:46;;;;;;;13.70;1.20;;;13.70;99.10;;;;;;5032792;28;20476;-77
2023/10/29 08:30:12;;;;;;;9.05;0.95;;;13.80;99.00;;;;;;5020409;28;20017;-76
2023/10/29 08:32:38;;;;;;;5.53;1.23;;;13.90;98.60;;;;;;5041821;28;20025;-77
2023/10/29 08:35:06;;;;;;;2.70;0.57;;;14.00;97.70;;;;;;5028266;28;20388;-76
2023/10/29 08:37:34;;;;;;;10.90;0.93;;;14.00;97.90;;;;;;5035355;28;20144;-77
2023/10/29 08:40:00;;;;;;;6.15;2.20;;;14.00;98.30;;;;;;5020857;28;20036;-77
2023/10/29 08:42:29;;;;;;;3.50;1.38;;;14.10;97.30;;;;;;5034984;28;20045;-77
2023/10/29 08:44:56;;;;;;;4.82;1.05;;;14.10;97.00;;;;;;5023169;28;20040;-77
2023/10/29 08:47:23;;;;;;;5.05;0.65;;;14.10;97.40;;;;;;5041206;28;20083;-77
2023/10/29 08:49:50;;;;;;;5.03;1.02;;;14.10;97.50;;;;;;5022190;28;20025;-78
2023/10/29 08:52:17;;;;;;;2.00;0.55;;;14.20;96.40;;;;;;5040149;28;20017;-77
2023/10/29 08:54:43;;;;;;;2.90;0.50;;;14.20;97.10;;;;;;5030893;28;20036;-78
2023/10/29 08:57:09;;;;;;;3.10;0.55;;;14.20;96.60;;;;;;5034570;28;20040;-78
2023/10/29 08:59:35;;;;;;;8.02;1.10;;;14.30;96.40;;;;;;5026373;28;20063;-78
2023/10/29 09:02:00;;;;;;;6.50;1.00;;;14.30;95.90;;;;;;5042529;28;20092;-78
2023/10/29 09:04:26;;;;;;;11.10;1.40;;;14.40;95.60;;;;;;5028751;28;20037;-79
2023/10/29 09:06:52;;;;;;;5.70;0.90;;;14.40;96.00;;;;;;5035517;28;20047;-79
2023/10/29 09:09:17;;;;;;;10.10;1.48;;;14.40;95.80;;;;;;5036944;28;20049;-78
2023/10/29 09:11:44;;;;;;;5.80;1.42;;;14.40;96.50;;;;;;5016878;28;20036;-78
2023/10/29 09:14:13;;;;;;;2.03;1.17;;;14.40;97.50;;;;;;5034179;28;20032;-78
2023/10/29 09:16:39;;;;;;;5.73;2.13;;;14.30;96.30;;;;;;5025312;28;20036;-78
2023/10/29 09:19:05;;;;;;;4.10;0.93;;;14.30;97.10;;;;;;5040220;28;20847;-78
2023/10/29 09:21:30;;;;;;;10.57;1.15;;;14.30;97.30;;;;;;5026080;28;20039;-78
2023/10/29 09:23:56;;;;;;;2.70;0.85;;;14.30;96.70;;;;;;5039127;28;20132;-78
2023/10/29 09:26:22;;;;;;;11.25;1.38;;;14.30;97.10;;;;;;5031317;28;20083;-77
2023/10/29 09:28:48;;;;;;;12.52;1.40;;;14.20;97.00;;;;;;5040960;28;20049;-78
2023/10/29 09:31:16;;;;;;;7.03;0.93;;;14.30;96.70;;;;;;5021984;28;20037;-78
2023/10/29 09:33:42;;;;;;;1.30;0.63;;;14.30;96.90;;;;;;5039721;28;20540;-78
2023/10/29 09:36:08;;;;;;;3.58;1.25;;;14.30;97.60;;;;;;5024361;28;20037;-78
2023/10/29 09:38:34;;;;;;;2.47;0.93;;;14.30;97.70;;;;;;5035121;28;20036;-78
2023/10/29 09:40:59;;;;;;;10.93;1.98;;;14.30;97.30;;;;;;5024300;28;20048;-79
2023/10/29 09:43:30;;;;;;;3.92;0.82;;;14.30;98.20;;;;;;5030714;28;20041;-78
2023/10/29 09:45:58;;;;;;;4.75;0.73;;;14.30;97.60;;;;;;5027661;28;20029;-78
2023/10/29 09:48:25;;;;;;;8.52;1.27;;;14.20;97.50;;;;;;5039070;28;20032;-78
2023/10/29 09:50:51;;;;;;;0.98;0.25;;;14.30;97.60;;;;;;5033817;28;20408;-78
2023/10/29 09:53:18;;;;;;;5.05;2.00;;;13.90;96.80;;;;;;5031467;28;20037;-78
2023/10/29 09:55:44;;;;;;;3.22;0.75;;;13.10;98.60;;;;;;5040871;28;20551;-78
2023/10/29 09:58:10;;;;;;;10.93;1.95;;;12.50;99.70;;;;;;5018283;28;20041;-73
2023/10/29 10:00:36;;;;;;;5.28;1.30;;;12.00;99.90;;;;;;5035054;28;20029;-73
2023/10/29 10:03:03;;;;;;;3.22;1.02;;;11.60;99.90;;;;;;5024568;28;20115;-73
2023/10/29 10:05:29;;;;;;;2.33;0.40;;;11.50;99.90;;;;;;5033528;28;20036;-73
2023/10/29 10:07:56;;;;;;;0.80;0.80;;;11.50;99.90;;;;;;5026876;28;20063;-73
2023/10/29 10:10:36;;;;;;;2.08;0.77;;;11.50;99.90;;;;;;5029447;28;20099;-73
2023/10/29 10:13:01;;;;;;;1.20;0.43;;;11.50;99.90;;;;;;5019957;28;20088;-73
2023/10/29 10:15:27;;;;;;;3.33;1.02;;;11.50;99.90;;;;;;5031903;28;20183;-73
2023/10/29 10:18:01;;;;;;;0.32;0.17;;;11.50;99.90;;;;;;5022511;28;20029;-75
2023/10/29 10:20:28;;;;;;;0.95;0.25;;;11.50;99.90;;;;;;5036360;28;20045;-74
2023/10/29 10:23:01;;;;;;;0.98;0.35;;;11.60;99.90;;;;;;5025033;28;20039;-73
2023/10/29 10:25:28;;;;;;;3.25;0.63;;;11.70;99.90;;;;;;5035759;28;20068;-74
2023/10/29 10:27:55;;;;;;;3.30;0.45;;;11.70;99.90;;;;;;5025699;28;20497;-74
2023/10/29 10:30:38;;;;;;;0.47;0.20;;;11.70;99.90;;;;;;5033364;28;20025;-74
2023/10/29 10:33:13;;;;;;;0.75;0.40;;;11.60;99.90;;;;;;5021988;28;20491;-74
2023/10/29 10:35:41;;;;;;;6.78;0.20;;;11.60;99.90;;;;;;5035843;28;20044;-74
2023/10/29 10:38:07;;;;;;;1.90;0.47;;;11.60;99.90;;;;;;5021297;28;20504;-73
2023/10/29 10:40:33;;;;;;;0.47;0.08;;;11.50;99.90;;;;;;5035347;28;20068;-73
2023/10/29 10:42:58;;;;;;;0.60;0.47;;;11.60;99.90;;;;;;5018623;28;20047;-73
2023/10/29 10:45:28;;;;;;;2.97;0.77;;;11.60;99.90;;;;;;5030331;28;20052;-74
2023/10/29 10:47:57;;;;;;;1.08;0.32;;;11.70;99.90;;;;;;5026282;28;20033;-75
2023/10/29 10:50:25;;;;;;;0.60;0.55;;;11.80;99.90;;;;;;5033779;28;20074;-76
2023/10/29 10:52:51;;;;;;;1.55;0.52;;;11.90;99.90;;;;;;5016225;28;20039;-76
2023/10/29 10:55:19;;;;;;;5.85;0.60;;;12.10;99.90;;;;;;5023591;28;20052;-76
2023/10/29 10:57:45;;;;;;;14.43;1.67;;;12.30;99.90;;;;;;5034419;28;20028;-75
2023/10/29 11:00:13;;;;;;;6.80;0.57;;;12.40;99.90;;;;;;5023506;28;20764;-76
2023/10/29 11:02:40;;;;;;;1.10;0.40;;;12.60;99.90;;;;;;5038342;28;20037;-75
2023/10/29 11:05:08;;;;;;;3.30;0.40;;;12.60;99.70;;;;;;5021213;28;20515;-75
2023/10/29 11:07:36;;;;;;;1.13;0.80;;;12.70;99.50;;;;;;5035542;28;20511;-75
2023/10/29 11:10:03;;;;;;;7.78;1.05;;;12.80;98.90;;;;;;5020985;28;20072;-75
2023/10/29 11:12:36;;;;;;;4.47;0.63;;;12.90;98.40;;;;;;5029081;28;20025;-76
2023/10/29 11:15:22;;;;;;;2.08;0.55;;;12.90;98.70;;;;;;5002280;28;20081;-76
2023/10/29 11:17:57;;;;;;;0.10;0.10;;;13.00;98.30;;;;;;5026782;28;20083;-74
2023/10/29 11:20:45;;;;;;;1.15;0.38;;;13.20;97.90;;;;;;5025004;28;20178;-75
2023/10/29 11:23:16;;;;;;;1.75;1.02;;;13.30;97.00;;;;;;5035846;28;20065;-76
2023/10/29 11:25:42;;;;;;;2.90;0.30;;;13.40;95.60;;;;;;5015169;28;20379;-76
2023/10/29 11:28:45;;;;;;;0.52;0.20;;;13.60;96.10;;;;;;5031468;28;20194;-76
2023/10/29 11:31:12;;;;;;;2.22;0.15;;;13.70;95.90;;;;;;5011554;28;20145;-78
2023/10/29 11:33:38;;;;;;;2.65;0.30;;;14.00;95.20;;;;;;5037493;28;20033;-76
2023/10/29 11:36:33;;;;;;;0.10;0.10;;;14.20;95.00;;;;;;5022397;28;20068;-77
2023/10/29 11:39:28;;;;;;;2.85;0.22;;;14.30;94.40;;;;;;5026727;28;20029;-76
2023/10/29 11:41:55;;;;;;;0.60;0.15;;;14.30;95.50;;;;;;5001223;28;20103;-76
2023/10/29 11:44:23;;;;;;;7.90;0.68;;;14.30;96.20;;;;;;5023237;28;20786;-76
2023/10/29 11:47:05;;;;;;;4.57;0.40;;;14.20;97.30;;;;;;5011777;28;20036;-74
2023/10/29 11:50:11;;;;;;;4.35;0.20;;;14.10;97.90;;;;;;5029986;28;20755;-75
2023/10/29 11:52:42;;;;;;;1.73;0.28;;;14.60;98.20;;;;;;5029260;28;20037;-75
2023/10/29 11:55:09;;;;;;;3.40;0.50;;;15.00;96.10;;;;;;5017080;28;20033;-74
2023/10/29 11:57:36;;;;;;;1.67;0.47;;;15.00;95.60;;;;;;5025662;28;20445;-76
2023/10/29 12:00:03;;;;;;;5.13;0.60;;;14.90;96.40;;;;;;5021144;28;20068;-76
2023/10/29 12:02:29;;;;;;;0.73;0.38;;;15.10;95.60;;;;;;5009626;28;20124;-77
2023/10/29 12:04:54;;;;;;;1.63;0.30;;;14.90;94.90;;;;;;5029628;28;20372;-77
2023/10/29 12:07:25;;;;;;;1.92;0.43;;;14.80;95.50;;;;;;5021175;28;20174;-76
2023/10/29 12:09:59;;;;;;;2.05;0.73;;;14.50;95.80;;;;;;5026672;28;20041;-77
2023/10/29 12:12:25;;;;;;;3.17;0.52;;;14.20;96.60;;;;;;5004373;28;20084;-77
2023/10/29 12:14:51;;;;;;;0.35;0.17;;;13.90;97.20;;;;;;5025251;28;20036;-77
2023/10/29 12:17:16;;;;;;;0.82;0.52;;;13.80;97.50;;;;;;5011381;28;20374;-75
2023/10/29 12:19:44;;;;;;;3.10;0.77;;;13.70;98.00;;;;;;5021692;28;20517;-74
2023/10/29 12:22:27;;;;;;;3.72;0.45;;;13.40;98.50;;;;;;5013120;28;20042;-75
2023/10/29 12:24:55;;;;;;;2.72;1.13;;;13.20;99.80;;;;;;5020922;28;20043;-74
2023/10/29 12:27:22;;;;;;;5.05;1.63;;;12.70;99.90;;;;;;5011482;28;20056;-73
2023/10/29 12:29:49;;;;;;;5.45;0.80;;;12.20;99.90;;;;;;5024376;28;20025;-73
2023/10/29 12:32:17;;;;;;;7.15;0.60;;;11.90;99.90;;;;;;5008788;28;20029;-73
2023/10/29 12:34:48;;;;;;;5.07;0.38;;;11.60;99.90;;;;;;5029913;28;20567;-73
2023/10/29 12:37:22;;;;;;;2.85;0.38;;;11.60;99.90;;;;;;5014209;28;20089;-74
2023/10/29 12:39:51;;;;;;;0.10;0.10;;;11.70;99.90;;;;;;5022260;28;20087;-74
2023/10/29 12:42:18;;;;;;;;;;;11.80;99.90;;;;;;5007537;28;20041;-73
2023/10/29 12:44:59;;;;;;;8.77;1.83;;;11.80;99.90;;;;;;5021588;28;20343;-72
2023/10/29 12:47:24;;;;;;;1.88;0.20;;;11.80;99.90;;;;;;5011320;28;20149;-72
2023/10/29 12:49:59;;;;;;;0.93;0.20;;;11.90;99.90;;;;;;5026957;28;20029;-74
2023/10/29 12:52:26;;;;;;;1.15;0.15;;;12.10;99.90;;;;;;5014373;28;20037;-75